sensor_id;sensor_type;location;lat;lon;timestamp;P1;durP1;ratioP1;P2;durP2;ratioP2
6928;SDS011;3504;52.616;13.238;2023-07-13T00:01:49;5.57;;;3.60;;
6928;SDS011;3504;52.616;13.238;2023-07-13T00:06:49;4.50;;;3.90;;
6928;SDS011;3504;52.616;13.238;2023-07-13T00:11:51;5.65;;;4.22;;
6928;SDS011;3504;52.616;13.238;2023-07-13T00:16:54;4.97;;;3.40;;
6928;SDS011;3504;52.616;13.238;2023-07-13T00:21:55;4.82;;;3.83;;
6928;SDS011;3504;52.616;13.238;2023-07-13T00:26:56;6.60;;;4.10;;
6928;SDS011;3504;52.616;13.238;2023-07-13T00:31:57;4.93;;;3.80;;
6928;SDS011;3504;52.616;13.238;2023-07-13T00:36:57;6.03;;;3.50;;
6928;SDS011;3504;52.616;13.238;2023-07-13T00:41:58;5.35;;;4.15;;
6928;SDS011;3504;52.616;13.238;2023-07-13T00:47:00;5.95;;;3.78;;
6928;SDS011;3504;52.616;13.238;2023-07-13T00:52:04;8.98;;;3.95;;
6928;SDS011;3504;52.616;13.238;2023-07-13T00:57:09;4.32;;;3.92;;
6928;SDS011;3504;52.616;13.238;2023-07-13T01:02:15;5.10;;;4.43;;
6928;SDS011;3504;52.616;13.238;2023-07-13T01:07:16;4.40;;;4.00;;
6928;SDS011;3504;52.616;13.238;2023-07-13T01:12:18;4.78;;;4.25;;
6928;SDS011;3504;52.616;13.238;2023-07-13T01:17:19;4.90;;;4.40;;
6928;SDS011;3504;52.616;13.238;2023-07-13T01:22:19;5.80;;;4.40;;
6928;SDS011;3504;52.616;13.238;2023-07-13T01:27:25;5.90;;;4.60;;
6928;SDS011;3504;52.616;13.238;2023-07-13T01:32:26;4.75;;;4.22;;
6928;SDS011;3504;52.616;13.238;2023-07-13T01:37:29;7.35;;;3.95;;
6928;SDS011;3504;52.616;13.238;2023-07-13T01:42:33;4.20;;;3.80;;
6928;SDS011;3504;52.616;13.238;2023-07-13T01:47:33;5.85;;;4.38;;
6928;SDS011;3504;52.616;13.238;2023-07-13T01:52:34;5.32;;;4.28;;
6928;SDS011;3504;52.616;13.238;2023-07-13T01:57:34;4.57;;;4.18;;
6928;SDS011;3504;52.616;13.238;2023-07-13T02:02:35;5.93;;;4.30;;
6928;SDS011;3504;52.616;13.238;2023-07-13T02:07:37;5.45;;;4.15;;
6928;SDS011;3504;52.616;13.238;2023-07-13T02:12:38;6.03;;;4.32;;
6928;SDS011;3504;52.616;13.238;2023-07-13T02:17:39;6.95;;;4.85;;
6928;SDS011;3504;52.616;13.238;2023-07-13T02:22:39;4.88;;;4.47;;
6928;SDS011;3504;52.616;13.238;2023-07-13T02:27:40;4.70;;;4.07;;
6928;SDS011;3504;52.616;13.238;2023-07-13T02:32:40;6.20;;;4.75;;
6928;SDS011;3504;52.616;13.238;2023-07-13T02:37:41;4.85;;;4.40;;
6928;SDS011;3504;52.616;13.238;2023-07-13T02:42:42;6.33;;;4.17;;
6928;SDS011;3504;52.616;13.238;2023-07-13T02:47:43;6.57;;;4.53;;
6928;SDS011;3504;52.616;13.238;2023-07-13T02:52:45;5.78;;;4.88;;
6928;SDS011;3504;52.616;13.238;2023-07-13T02:57:45;5.65;;;4.20;;
6928;SDS011;3504;52.616;13.238;2023-07-13T03:02:46;5.17;;;4.67;;
6928;SDS011;3504;52.616;13.238;2023-07-13T03:07:47;5.57;;;4.40;;
6928;SDS011;3504;52.616;13.238;2023-07-13T03:12:48;6.43;;;4.07;;
6928;SDS011;3504;52.616;13.238;2023-07-13T03:17:56;5.05;;;4.57;;
6928;SDS011;3504;52.616;13.238;2023-07-13T03:22:57;5.00;;;4.43;;
6928;SDS011;3504;52.616;13.238;2023-07-13T03:27:57;8.17;;;4.80;;
6928;SDS011;3504;52.616;13.238;2023-07-13T03:32:58;4.72;;;3.95;;
6928;SDS011;3504;52.616;13.238;2023-07-13T03:38:00;7.57;;;4.90;;
6928;SDS011;3504;52.616;13.238;2023-07-13T03:43:03;6.25;;;4.57;;
6928;SDS011;3504;52.616;13.238;2023-07-13T03:48:04;6.22;;;4.78;;
6928;SDS011;3504;52.616;13.238;2023-07-13T03:53:06;4.67;;;4.00;;
6928;SDS011;3504;52.616;13.238;2023-07-13T03:58:24;4.93;;;4.17;;
6928;SDS011;3504;52.616;13.238;2023-07-13T04:03:32;5.43;;;4.53;;
6928;SDS011;3504;52.616;13.238;2023-07-13T04:08:34;7.40;;;4.70;;
6928;SDS011;3504;52.616;13.238;2023-07-13T04:13:36;5.47;;;4.60;;
6928;SDS011;3504;52.616;13.238;2023-07-13T04:18:36;5.70;;;4.60;;
6928;SDS011;3504;52.616;13.238;2023-07-13T04:23:37;7.17;;;5.00;;
6928;SDS011;3504;52.616;13.238;2023-07-13T04:28:38;7.37;;;5.03;;
6928;SDS011;3504;52.616;13.238;2023-07-13T04:33:39;10.85;;;4.50;;
6928;SDS011;3504;52.616;13.238;2023-07-13T04:38:39;8.98;;;4.93;;
6928;SDS011;3504;52.616;13.238;2023-07-13T04:43:40;7.90;;;5.07;;
6928;SDS011;3504;52.616;13.238;2023-07-13T04:48:40;6.97;;;4.63;;
6928;SDS011;3504;52.616;13.238;2023-07-13T04:53:41;8.00;;;5.45;;
6928;SDS011;3504;52.616;13.238;2023-07-13T04:58:41;5.50;;;4.60;;
6928;SDS011;3504;52.616;13.238;2023-07-13T05:03:42;6.32;;;4.88;;
6928;SDS011;3504;52.616;13.238;2023-07-13T05:08:42;7.68;;;4.80;;
6928;SDS011;3504;52.616;13.238;2023-07-13T05:13:43;7.68;;;5.28;;
6928;SDS011;3504;52.616;13.238;2023-07-13T05:18:44;5.30;;;4.70;;
6928;SDS011;3504;52.616;13.238;2023-07-13T05:23:44;5.05;;;4.50;;
6928;SDS011;3504;52.616;13.238;2023-07-13T05:28:45;5.38;;;4.10;;
6928;SDS011;3504;52.616;13.238;2023-07-13T05:33:45;6.78;;;4.75;;
6928;SDS011;3504;52.616;13.238;2023-07-13T05:38:46;7.45;;;4.00;;
6928;SDS011;3504;52.616;13.238;2023-07-13T05:43:46;4.70;;;4.25;;
6928;SDS011;3504;52.616;13.238;2023-07-13T05:48:47;4.30;;;3.90;;
6928;SDS011;3504;52.616;13.238;2023-07-13T05:53:47;6.03;;;4.20;;
6928;SDS011;3504;52.616;13.238;2023-07-13T05:58:48;6.95;;;3.70;;
6928;SDS011;3504;52.616;13.238;2023-07-13T06:03:49;3.70;;;3.38;;
6928;SDS011;3504;52.616;13.238;2023-07-13T06:08:50;6.22;;;3.85;;
6928;SDS011;3504;52.616;13.238;2023-07-13T06:13:50;4.50;;;3.00;;
6928;SDS011;3504;52.616;13.238;2023-07-13T06:18:51;4.47;;;3.00;;
6928;SDS011;3504;52.616;13.238;2023-07-13T06:23:52;4.25;;;3.17;;
6928;SDS011;3504;52.616;13.238;2023-07-13T06:28:53;4.28;;;3.10;;
6928;SDS011;3504;52.616;13.238;2023-07-13T06:33:54;4.15;;;2.95;;
6928;SDS011;3504;52.616;13.238;2023-07-13T06:38:54;4.32;;;2.92;;
6928;SDS011;3504;52.616;13.238;2023-07-13T06:43:55;4.28;;;2.80;;
6928;SDS011;3504;52.616;13.238;2023-07-13T06:48:55;2.97;;;2.67;;
6928;SDS011;3504;52.616;13.238;2023-07-13T06:53:56;5.03;;;3.00;;
6928;SDS011;3504;52.616;13.238;2023-07-13T06:58:56;5.72;;;2.80;;
6928;SDS011;3504;52.616;13.238;2023-07-13T07:03:57;6.10;;;2.70;;
6928;SDS011;3504;52.616;13.238;2023-07-13T07:08:57;4.55;;;2.90;;
6928;SDS011;3504;52.616;13.238;2023-07-13T07:13:58;4.90;;;2.40;;
6928;SDS011;3504;52.616;13.238;2023-07-13T07:19:01;3.42;;;2.80;;
6928;SDS011;3504;52.616;13.238;2023-07-13T07:24:02;5.05;;;2.70;;
6928;SDS011;3504;52.616;13.238;2023-07-13T07:29:04;2.78;;;2.30;;
6928;SDS011;3504;52.616;13.238;2023-07-13T07:34:05;4.50;;;2.40;;
6928;SDS011;3504;52.616;13.238;2023-07-13T07:39:05;4.70;;;2.15;;
6928;SDS011;3504;52.616;13.238;2023-07-13T07:44:06;5.00;;;2.72;;
6928;SDS011;3504;52.616;13.238;2023-07-13T07:49:07;4.25;;;2.35;;
6928;SDS011;3504;52.616;13.238;2023-07-13T07:54:10;4.25;;;2.60;;
6928;SDS011;3504;52.616;13.238;2023-07-13T07:59:11;3.30;;;2.40;;
6928;SDS011;3504;52.616;13.238;2023-07-13T08:04:12;4.32;;;1.88;;
6928;SDS011;3504;52.616;13.238;2023-07-13T08:09:12;2.33;;;1.63;;
6928;SDS011;3504;52.616;13.238;2023-07-13T08:14:13;4.22;;;1.92;;
6928;SDS011;3504;52.616;13.238;2023-07-13T08:19:14;2.83;;;1.30;;
6928;SDS011;3504;52.616;13.238;2023-07-13T08:24:14;2.15;;;1.40;;
6928;SDS011;3504;52.616;13.238;2023-07-13T08:29:15;1.45;;;1.25;;
6928;SDS011;3504;52.616;13.238;2023-07-13T08:34:16;2.42;;;1.52;;
6928;SDS011;3504;52.616;13.238;2023-07-13T08:39:16;2.30;;;1.20;;
6928;SDS011;3504;52.616;13.238;2023-07-13T08:44:24;2.60;;;1.38;;
6928;SDS011;3504;52.616;13.238;2023-07-13T08:49:50;4.55;;;1.48;;
6928;SDS011;3504;52.616;13.238;2023-07-13T08:54:52;2.25;;;1.30;;
6928;SDS011;3504;52.616;13.238;2023-07-13T08:59:55;2.92;;;1.48;;
6928;SDS011;3504;52.616;13.238;2023-07-13T09:05:03;2.22;;;1.65;;
6928;SDS011;3504;52.616;13.238;2023-07-13T09:15:38;2.17;;;1.50;;
6928;SDS011;3504;52.616;13.238;2023-07-13T09:20:44;2.72;;;1.55;;
6928;SDS011;3504;52.616;13.238;2023-07-13T09:25:54;3.80;;;1.80;;
6928;SDS011;3504;52.616;13.238;2023-07-13T09:31:07;4.55;;;1.70;;
6928;SDS011;3504;52.616;13.238;2023-07-13T09:46:45;4.10;;;1.90;;
6928;SDS011;3504;52.616;13.238;2023-07-13T09:52:02;3.95;;;2.30;;
6928;SDS011;3504;52.616;13.238;2023-07-13T09:57:14;3.05;;;2.33;;
6928;SDS011;3504;52.616;13.238;2023-07-13T10:02:27;4.47;;;2.88;;
6928;SDS011;3504;52.616;13.238;2023-07-13T10:07:38;5.60;;;2.92;;
6928;SDS011;3504;52.616;13.238;2023-07-13T10:12:44;4.55;;;2.97;;
6928;SDS011;3504;52.616;13.238;2023-07-13T10:17:44;5.07;;;2.60;;
6928;SDS011;3504;52.616;13.238;2023-07-13T10:28:03;5.10;;;2.72;;
6928;SDS011;3504;52.616;13.238;2023-07-13T10:33:30;5.28;;;2.60;;
6928;SDS011;3504;52.616;13.238;2023-07-13T10:38:30;4.55;;;2.70;;
6928;SDS011;3504;52.616;13.238;2023-07-13T10:43:36;4.72;;;3.10;;
6928;SDS011;3504;52.616;13.238;2023-07-13T10:48:43;6.95;;;3.15;;
6928;SDS011;3504;52.616;13.238;2023-07-13T10:59:25;5.75;;;2.80;;
6928;SDS011;3504;52.616;13.238;2023-07-13T11:04:29;3.25;;;2.95;;
6928;SDS011;3504;52.616;13.238;2023-07-13T11:09:41;5.03;;;2.90;;
6928;SDS011;3504;52.616;13.238;2023-07-13T11:19:54;4.80;;;2.72;;
6928;SDS011;3504;52.616;13.238;2023-07-13T11:25:32;3.50;;;2.58;;
6928;SDS011;3504;52.616;13.238;2023-07-13T11:30:36;4.35;;;2.58;;
6928;SDS011;3504;52.616;13.238;2023-07-13T11:46:22;6.10;;;3.08;;
6928;SDS011;3504;52.616;13.238;2023-07-13T11:51:29;5.40;;;2.90;;
6928;SDS011;3504;52.616;13.238;2023-07-13T11:56:33;5.07;;;3.05;;
6928;SDS011;3504;52.616;13.238;2023-07-13T12:01:34;3.83;;;2.55;;
6928;SDS011;3504;52.616;13.238;2023-07-13T12:06:41;3.05;;;2.55;;
6928;SDS011;3504;52.616;13.238;2023-07-13T12:11:43;4.38;;;2.60;;
6928;SDS011;3504;52.616;13.238;2023-07-13T12:16:47;3.92;;;3.00;;
6928;SDS011;3504;52.616;13.238;2023-07-13T12:21:49;7.40;;;2.88;;
6928;SDS011;3504;52.616;13.238;2023-07-13T12:26:54;3.95;;;3.17;;
6928;SDS011;3504;52.616;13.238;2023-07-13T12:32:02;4.57;;;2.75;;
6928;SDS011;3504;52.616;13.238;2023-07-13T12:37:08;7.32;;;3.40;;
6928;SDS011;3504;52.616;13.238;2023-07-13T12:42:19;3.80;;;2.72;;
6928;SDS011;3504;52.616;13.238;2023-07-13T12:47:28;4.65;;;2.95;;
6928;SDS011;3504;52.616;13.238;2023-07-13T12:52:30;6.75;;;2.53;;
6928;SDS011;3504;52.616;13.238;2023-07-13T12:57:38;5.10;;;2.65;;
6928;SDS011;3504;52.616;13.238;2023-07-13T13:02:56;6.45;;;2.30;;
6928;SDS011;3504;52.616;13.238;2023-07-13T13:07:57;4.60;;;3.15;;
6928;SDS011;3504;52.616;13.238;2023-07-13T13:12:58;4.60;;;2.40;;
6928;SDS011;3504;52.616;13.238;2023-07-13T13:17:59;6.55;;;2.53;;
6928;SDS011;3504;52.616;13.238;2023-07-13T13:22:59;3.83;;;2.65;;
6928;SDS011;3504;52.616;13.238;2023-07-13T13:28:00;3.83;;;2.35;;
6928;SDS011;3504;52.616;13.238;2023-07-13T13:33:01;5.93;;;2.75;;
6928;SDS011;3504;52.616;13.238;2023-07-13T13:38:01;8.23;;;2.60;;
6928;SDS011;3504;52.616;13.238;2023-07-13T13:43:04;7.93;;;2.67;;
6928;SDS011;3504;52.616;13.238;2023-07-13T13:48:32;10.25;;;3.20;;
6928;SDS011;3504;52.616;13.238;2023-07-13T13:53:35;3.58;;;2.30;;
6928;SDS011;3504;52.616;13.238;2023-07-13T13:58:36;5.95;;;2.55;;
6928;SDS011;3504;52.616;13.238;2023-07-13T14:03:36;3.15;;;2.40;;
6928;SDS011;3504;52.616;13.238;2023-07-13T14:08:37;4.50;;;2.20;;
6928;SDS011;3504;52.616;13.238;2023-07-13T14:13:38;8.45;;;2.28;;
6928;SDS011;3504;52.616;13.238;2023-07-13T14:18:47;4.95;;;2.40;;
6928;SDS011;3504;52.616;13.238;2023-07-13T14:23:49;7.78;;;2.40;;
6928;SDS011;3504;52.616;13.238;2023-07-13T14:28:51;4.70;;;1.88;;
6928;SDS011;3504;52.616;13.238;2023-07-13T14:33:55;3.00;;;1.85;;
6928;SDS011;3504;52.616;13.238;2023-07-13T14:38:56;3.13;;;1.50;;
6928;SDS011;3504;52.616;13.238;2023-07-13T14:43:58;2.30;;;1.65;;
6928;SDS011;3504;52.616;13.238;2023-07-13T14:49:05;3.35;;;1.70;;
6928;SDS011;3504;52.616;13.238;2023-07-13T14:54:23;4.78;;;1.80;;
6928;SDS011;3504;52.616;13.238;2023-07-13T14:59:24;4.45;;;1.48;;
6928;SDS011;3504;52.616;13.238;2023-07-13T15:04:24;2.80;;;1.10;;
6928;SDS011;3504;52.616;13.238;2023-07-13T15:09:25;5.25;;;1.65;;
6928;SDS011;3504;52.616;13.238;2023-07-13T15:14:26;6.35;;;2.10;;
6928;SDS011;3504;52.616;13.238;2023-07-13T15:19:27;2.80;;;1.45;;
6928;SDS011;3504;52.616;13.238;2023-07-13T15:24:28;3.78;;;1.50;;
6928;SDS011;3504;52.616;13.238;2023-07-13T15:29:29;3.78;;;1.30;;
6928;SDS011;3504;52.616;13.238;2023-07-13T15:34:32;3.80;;;1.40;;
6928;SDS011;3504;52.616;13.238;2023-07-13T15:39:33;3.10;;;1.38;;
6928;SDS011;3504;52.616;13.238;2023-07-13T15:44:35;4.82;;;1.55;;
6928;SDS011;3504;52.616;13.238;2023-07-13T15:49:36;3.35;;;1.40;;
6928;SDS011;3504;52.616;13.238;2023-07-13T15:54:36;4.72;;;1.63;;
6928;SDS011;3504;52.616;13.238;2023-07-13T15:59:38;2.88;;;1.20;;
6928;SDS011;3504;52.616;13.238;2023-07-13T16:04:41;3.80;;;1.45;;
6928;SDS011;3504;52.616;13.238;2023-07-13T16:09:42;2.55;;;1.50;;
6928;SDS011;3504;52.616;13.238;2023-07-13T16:14:42;4.07;;;1.50;;
6928;SDS011;3504;52.616;13.238;2023-07-13T16:19:43;5.35;;;1.80;;
6928;SDS011;3504;52.616;13.238;2023-07-13T16:24:44;5.55;;;1.95;;
6928;SDS011;3504;52.616;13.238;2023-07-13T16:29:45;3.20;;;1.40;;
6928;SDS011;3504;52.616;13.238;2023-07-13T16:34:45;3.05;;;1.60;;
6928;SDS011;3504;52.616;13.238;2023-07-13T16:39:48;3.22;;;1.67;;
6928;SDS011;3504;52.616;13.238;2023-07-13T16:44:55;3.10;;;1.73;;
6928;SDS011;3504;52.616;13.238;2023-07-13T16:49:56;3.30;;;1.63;;
6928;SDS011;3504;52.616;13.238;2023-07-13T16:54:58;25.83;;;4.00;;
6928;SDS011;3504;52.616;13.238;2023-07-13T16:59:58;11.45;;;2.88;;
6928;SDS011;3504;52.616;13.238;2023-07-13T17:05:01;6.55;;;2.20;;
6928;SDS011;3504;52.616;13.238;2023-07-13T17:10:03;4.68;;;2.10;;
6928;SDS011;3504;52.616;13.238;2023-07-13T17:15:08;4.90;;;2.28;;
6928;SDS011;3504;52.616;13.238;2023-07-13T17:20:14;6.25;;;2.20;;
6928;SDS011;3504;52.616;13.238;2023-07-13T17:25:22;4.53;;;2.20;;
6928;SDS011;3504;52.616;13.238;2023-07-13T17:30:24;7.22;;;2.60;;
6928;SDS011;3504;52.616;13.238;2023-07-13T17:35:26;4.50;;;2.67;;
6928;SDS011;3504;52.616;13.238;2023-07-13T17:40:29;3.97;;;2.58;;
6928;SDS011;3504;52.616;13.238;2023-07-13T17:45:30;4.30;;;2.58;;
6928;SDS011;3504;52.616;13.238;2023-07-13T17:50:32;4.68;;;2.75;;
6928;SDS011;3504;52.616;13.238;2023-07-13T17:55:44;5.25;;;2.58;;
6928;SDS011;3504;52.616;13.238;2023-07-13T18:00:45;4.75;;;2.75;;
6928;SDS011;3504;52.616;13.238;2023-07-13T18:05:49;6.03;;;3.00;;
6928;SDS011;3504;52.616;13.238;2023-07-13T18:10:51;10.25;;;3.70;;
6928;SDS011;3504;52.616;13.238;2023-07-13T18:15:54;9.60;;;5.28;;
6928;SDS011;3504;52.616;13.238;2023-07-13T18:20:58;8.07;;;4.10;;
6928;SDS011;3504;52.616;13.238;2023-07-13T18:25:58;6.85;;;3.78;;
6928;SDS011;3504;52.616;13.238;2023-07-13T18:30:59;6.45;;;3.92;;
6928;SDS011;3504;52.616;13.238;2023-07-13T18:36:00;5.90;;;3.38;;
6928;SDS011;3504;52.616;13.238;2023-07-13T18:41:04;6.18;;;3.42;;
6928;SDS011;3504;52.616;13.238;2023-07-13T18:46:12;4.68;;;2.92;;
6928;SDS011;3504;52.616;13.238;2023-07-13T18:51:30;3.67;;;2.95;;
6928;SDS011;3504;52.616;13.238;2023-07-13T18:56:31;7.32;;;3.50;;
6928;SDS011;3504;52.616;13.238;2023-07-13T19:01:33;4.13;;;2.65;;
6928;SDS011;3504;52.616;13.238;2023-07-13T19:06:35;5.63;;;3.15;;
6928;SDS011;3504;52.616;13.238;2023-07-13T19:11:36;5.15;;;3.55;;
6928;SDS011;3504;52.616;13.238;2023-07-13T19:16:36;5.35;;;3.55;;
6928;SDS011;3504;52.616;13.238;2023-07-13T19:21:38;5.35;;;2.80;;
6928;SDS011;3504;52.616;13.238;2023-07-13T19:26:39;3.50;;;3.03;;
6928;SDS011;3504;52.616;13.238;2023-07-13T19:31:39;4.95;;;3.20;;
6928;SDS011;3504;52.616;13.238;2023-07-13T19:36:40;5.95;;;3.25;;
6928;SDS011;3504;52.616;13.238;2023-07-13T19:41:41;4.13;;;3.17;;
6928;SDS011;3504;52.616;13.238;2023-07-13T19:46:41;4.22;;;3.63;;
6928;SDS011;3504;52.616;13.238;2023-07-13T19:51:42;4.50;;;3.08;;
6928;SDS011;3504;52.616;13.238;2023-07-13T19:56:43;6.43;;;4.78;;
6928;SDS011;3504;52.616;13.238;2023-07-13T20:01:44;7.03;;;5.30;;
6928;SDS011;3504;52.616;13.238;2023-07-13T20:06:45;9.68;;;6.57;;
6928;SDS011;3504;52.616;13.238;2023-07-13T20:11:46;11.82;;;8.68;;
6928;SDS011;3504;52.616;13.238;2023-07-13T20:16:48;9.68;;;8.10;;
6928;SDS011;3504;52.616;13.238;2023-07-13T20:21:52;9.23;;;6.75;;
6928;SDS011;3504;52.616;13.238;2023-07-13T20:26:52;6.50;;;5.18;;
6928;SDS011;3504;52.616;13.238;2023-07-13T20:31:53;6.07;;;4.47;;
6928;SDS011;3504;52.616;13.238;2023-07-13T20:36:53;6.85;;;4.35;;
6928;SDS011;3504;52.616;13.238;2023-07-13T20:41:54;4.70;;;4.30;;
6928;SDS011;3504;52.616;13.238;2023-07-13T20:46:55;5.10;;;3.92;;
6928;SDS011;3504;52.616;13.238;2023-07-13T20:51:56;6.55;;;3.65;;
6928;SDS011;3504;52.616;13.238;2023-07-13T20:56:58;5.43;;;4.05;;
6928;SDS011;3504;52.616;13.238;2023-07-13T21:01:58;5.35;;;4.53;;
6928;SDS011;3504;52.616;13.238;2023-07-13T21:06:59;5.07;;;4.50;;
6928;SDS011;3504;52.616;13.238;2023-07-13T21:11:59;4.80;;;3.97;;
6928;SDS011;3504;52.616;13.238;2023-07-13T21:17:00;4.75;;;4.25;;
6928;SDS011;3504;52.616;13.238;2023-07-13T21:22:00;5.30;;;4.80;;
6928;SDS011;3504;52.616;13.238;2023-07-13T21:27:01;4.97;;;4.22;;
6928;SDS011;3504;52.616;13.238;2023-07-13T21:32:02;5.47;;;4.25;;
6928;SDS011;3504;52.616;13.238;2023-07-13T21:37:15;5.10;;;4.60;;
6928;SDS011;3504;52.616;13.238;2023-07-13T21:42:18;6.88;;;5.22;;
6928;SDS011;3504;52.616;13.238;2023-07-13T21:47:19;5.15;;;4.63;;
6928;SDS011;3504;52.616;13.238;2023-07-13T21:52:19;5.18;;;4.50;;
6928;SDS011;3504;52.616;13.238;2023-07-13T21:57:20;6.57;;;5.28;;
6928;SDS011;3504;52.616;13.238;2023-07-13T22:02:20;5.75;;;4.95;;
6928;SDS011;3504;52.616;13.238;2023-07-13T22:07:21;5.78;;;5.18;;
6928;SDS011;3504;52.616;13.238;2023-07-13T22:12:21;5.38;;;4.80;;
6928;SDS011;3504;52.616;13.238;2023-07-13T22:17:22;5.28;;;4.30;;
6928;SDS011;3504;52.616;13.238;2023-07-13T22:22:22;5.70;;;5.00;;
6928;SDS011;3504;52.616;13.238;2023-07-13T22:27:23;5.40;;;4.28;;
6928;SDS011;3504;52.616;13.238;2023-07-13T22:32:28;8.98;;;5.35;;
6928;SDS011;3504;52.616;13.238;2023-07-13T22:37:29;5.78;;;4.50;;
6928;SDS011;3504;52.616;13.238;2023-07-13T22:42:29;6.35;;;5.55;;
6928;SDS011;3504;52.616;13.238;2023-07-13T22:47:30;7.95;;;5.28;;
6928;SDS011;3504;52.616;13.238;2023-07-13T22:52:31;5.30;;;4.40;;
6928;SDS011;3504;52.616;13.238;2023-07-13T22:57:35;4.72;;;4.22;;
6928;SDS011;3504;52.616;13.238;2023-07-13T23:02:36;4.90;;;4.40;;
6928;SDS011;3504;52.616;13.238;2023-07-13T23:07:36;6.18;;;4.22;;
6928;SDS011;3504;52.616;13.238;2023-07-13T23:12:38;5.57;;;4.35;;
6928;SDS011;3504;52.616;13.238;2023-07-13T23:17:39;3.83;;;3.53;;
6928;SDS011;3504;52.616;13.238;2023-07-13T23:22:40;5.35;;;4.18;;
6928;SDS011;3504;52.616;13.238;2023-07-13T23:27:40;4.55;;;3.80;;
6928;SDS011;3504;52.616;13.238;2023-07-13T23:32:53;4.65;;;4.20;;
6928;SDS011;3504;52.616;13.238;2023-07-13T23:38:00;6.32;;;4.00;;
6928;SDS011;3504;52.616;13.238;2023-07-13T23:43:01;4.90;;;3.38;;
6928;SDS011;3504;52.616;13.238;2023-07-13T23:48:03;6.28;;;3.63;;
6928;SDS011;3504;52.616;13.238;2023-07-13T23:53:15;4.97;;;4.25;;
6928;SDS011;3504;52.616;13.238;2023-07-13T23:58:16;5.40;;;4.03;;
